Terminal Aerodrome Forecast
Issued by NWS

Home | Current Version | Previous Version | Graphics & Text | Print | Product List | Glossary On
Versions: 1 2 3 4 5 6 7 8 9 10 11 12 13 14 15
000
FTUS43 KIWX 300533
TAFSBN
TAF
KSBN 300533Z 3006/0106 09006KT P6SM BKN120
     FM301500 10013KT P6SM OVC070
     FM301700 10013G22KT P6SM -RA OVC040
     FM301800 10013G22KT 5SM -RA BR OVC025
     FM301900 10013G22KT 3SM -RA BR OVC015
     FM302100 09014G22KT 2SM -RA BR OVC005=

USA.gov is the U.S. government's official web portal to all federal, state and local government web resources and services.